createdAt,value
2019-04-06T00:00:47.627Z,87.47
2019-04-06T00:01:45.544Z,87.47
2019-04-06T00:02:25.602Z,87.49
2019-04-06T00:03:01.743Z,87.41
2019-04-06T00:03:37.920Z,87.41
2019-04-06T00:04:14.100Z,87.39
2019-04-06T00:04:50.400Z,87.38
2019-04-06T00:05:26.579Z,87.41
2019-04-06T00:06:02.797Z,87.42
2019-04-06T00:06:39.064Z,87.44
2019-04-06T00:07:15.257Z,87.39
2019-04-06T00:07:51.649Z,87.36
2019-04-06T00:08:27.803Z,87.30
2019-04-06T00:09:05.274Z,87.29
2019-04-06T00:09:41.587Z,87.30
2019-04-06T00:10:17.998Z,87.27
2019-04-06T00:10:55.269Z,87.29
2019-04-06T00:11:31.509Z,87.27
2019-04-06T00:12:07.696Z,87.25
2019-04-06T00:12:44.030Z,87.19
2019-04-06T00:13:20.419Z,87.19
2019-04-06T00:13:56.556Z,87.14
2019-04-06T00:14:32.721Z,87.06
2019-04-06T00:15:09.284Z,86.94
2019-04-06T00:15:45.570Z,86.77
2019-04-06T00:16:22.020Z,86.60
2019-04-06T00:16:58.319Z,86.45
2019-04-06T00:17:34.844Z,86.30
2019-04-06T00:18:10.801Z,86.13
2019-04-06T00:18:46.924Z,85.89
2019-04-06T00:19:23.017Z,85.74
2019-04-06T00:19:59.067Z,85.63
2019-04-06T00:20:35.103Z,85.53
2019-04-06T00:21:11.406Z,85.38
2019-04-06T00:21:47.669Z,85.22
2019-04-06T00:22:23.865Z,85.05
2019-04-06T00:23:00.065Z,85.19
2019-04-06T00:23:36.254Z,85.19
2019-04-06T00:24:12.379Z,85.08
2019-04-06T00:24:48.481Z,85.07
2019-04-06T00:25:24.644Z,84.88
2019-04-06T00:26:00.731Z,84.62
2019-04-06T00:26:37.599Z,84.49
2019-04-06T00:27:13.812Z,84.42
2019-04-06T00:27:49.912Z,84.34
2019-04-06T00:28:25.991Z,84.35
2019-04-06T00:29:01.960Z,84.15
2019-04-06T00:29:38.027Z,83.92
2019-04-06T00:30:15.289Z,83.35
2019-04-06T00:31:07.857Z,83.35
2019-04-06T00:32:11.700Z,83.56
2019-04-06T00:32:52.376Z,83.59
2019-04-06T00:33:28.651Z,83.43
2019-04-06T00:34:04.652Z,83.21
2019-04-06T00:34:40.803Z,83.10
2019-04-06T00:35:17.811Z,82.83
2019-04-06T00:35:53.926Z,82.83
2019-04-06T00:36:30.007Z,82.79
2019-04-06T00:37:11.507Z,82.78
2019-04-06T00:37:47.894Z,82.84
2019-04-06T00:38:24.097Z,82.81
2019-04-06T00:39:00.472Z,82.74
2019-04-06T00:39:36.834Z,82.50
2019-04-06T00:40:13.278Z,82.16
2019-04-06T00:40:49.385Z,81.91
2019-04-06T00:41:25.704Z,81.87
2019-04-06T00:42:02.017Z,82.71
2019-04-06T00:42:38.218Z,82.71
2019-04-06T00:43:14.508Z,81.99
2019-04-06T00:43:50.660Z,82.17
2019-04-06T00:44:26.852Z,81.32
2019-04-06T00:45:03.167Z,82.22
2019-04-06T00:45:39.495Z,82.22
2019-04-06T00:46:15.666Z,81.91
2019-04-06T00:46:51.669Z,81.31
2019-04-06T00:47:28.585Z,82.20
2019-04-06T00:48:05.536Z,82.20
2019-04-06T00:48:41.800Z,81.55
2019-04-06T00:49:18.102Z,81.54
2019-04-06T00:49:54.291Z,81.54
2019-04-06T00:50:30.592Z,81.30
2019-04-06T00:51:06.719Z,81.36
2019-04-06T00:51:43.023Z,80.64
2019-04-06T00:52:19.445Z,81.21
2019-04-06T00:52:55.536Z,81.21
2019-04-06T00:53:31.821Z,80.60
2019-04-06T00:54:08.066Z,80.70
2019-04-06T00:54:44.260Z,81.08
2019-04-06T00:55:20.484Z,81.08
2019-04-06T00:55:56.561Z,80.75
2019-04-06T00:56:33.549Z,79.99
2019-04-06T00:57:09.660Z,79.99
2019-04-06T00:57:45.788Z,81.29
2019-04-06T00:58:22.110Z,81.19
2019-04-06T00:58:58.291Z,81.19
2019-04-06T00:59:34.447Z,81.03
2019-04-06T01:00:10.657Z,81.08
2019-04-06T01:00:46.734Z,81.61
2019-04-06T01:01:22.857Z,81.61
2019-04-06T01:01:59.134Z,80.93
2019-04-06T01:02:35.526Z,80.93
2019-04-06T01:03:12.107Z,81.15
2019-04-06T01:03:48.077Z,80.83
2019-04-06T01:04:24.218Z,81.63
2019-04-06T01:05:00.316Z,81.48
2019-04-06T01:05:37.229Z,81.48
2019-04-06T01:06:13.402Z,81.21
2019-04-06T01:06:49.542Z,80.55
2019-04-06T01:07:25.650Z,80.55
2019-04-06T01:08:01.802Z,80.96
2019-04-06T01:08:38.009Z,81.28
2019-04-06T01:09:14.855Z,81.28
2019-04-06T01:09:51.136Z,81.33
2019-04-06T01:10:27.350Z,80.65
2019-04-06T01:11:03.577Z,80.65
2019-04-06T01:11:39.871Z,81.20
2019-04-06T01:12:16.025Z,81.19
2019-04-06T01:12:52.297Z,81.66
2019-04-06T01:13:28.589Z,81.17
2019-04-06T01:14:04.916Z,81.46
2019-04-06T01:14:41.057Z,81.36
2019-04-06T01:15:17.241Z,81.36
2019-04-06T01:15:53.503Z,80.74
2019-04-06T01:16:29.824Z,81.11
2019-04-06T01:17:06.044Z,80.92
2019-04-06T01:17:42.759Z,80.92
2019-04-06T01:18:18.880Z,79.80
2019-04-06T01:18:55.057Z,78.96
2019-04-06T01:19:31.187Z,78.62
2019-04-06T01:20:07.668Z,78.62
2019-04-06T01:20:43.789Z,78.31
2019-04-06T01:21:19.971Z,78.25
2019-04-06T01:21:56.299Z,78.08
2019-04-06T01:22:33.125Z,77.76
2019-04-06T01:23:09.276Z,77.61
2019-04-06T01:23:45.630Z,77.06
2019-04-06T01:24:21.780Z,77.06
2019-04-06T01:24:58.073Z,77.19
2019-04-06T01:25:34.342Z,77.11
2019-04-06T01:26:10.421Z,77.13
2019-04-06T01:26:47.177Z,77.20
2019-04-06T01:27:23.694Z,77.02
2019-04-06T01:27:59.985Z,76.81
2019-04-06T01:28:36.236Z,76.59
2019-04-06T01:29:12.337Z,76.34
2019-04-06T01:29:48.598Z,76.48
2019-04-06T01:30:25.004Z,76.35
2019-04-06T01:31:01.321Z,76.13
2019-04-06T01:31:37.942Z,75.95
2019-04-06T01:32:13.916Z,75.64
2019-04-06T01:32:50.295Z,75.42
2019-04-06T01:33:26.363Z,75.35
2019-04-06T01:34:02.410Z,75.22
2019-04-06T01:34:38.569Z,74.89
2019-04-06T01:35:15.216Z,73.76
2019-04-06T01:35:51.482Z,72.91
2019-04-06T01:36:27.701Z,72.86
2019-04-06T01:37:03.711Z,72.42
2019-04-06T01:37:39.799Z,72.61
2019-04-06T01:38:15.953Z,72.60
2019-04-06T01:38:52.043Z,72.25
2019-04-06T01:39:28.457Z,72.49
2019-04-06T01:40:05.223Z,72.65
2019-04-06T01:40:41.651Z,72.66
2019-04-06T01:41:17.992Z,72.76
2019-04-06T01:41:54.474Z,72.89
2019-04-06T01:42:30.750Z,73.12
2019-04-06T01:43:07.219Z,73.29
2019-04-06T01:43:44.633Z,73.46
2019-04-06T01:44:21.241Z,73.57
2019-04-06T01:44:57.351Z,73.60
2019-04-06T01:45:33.324Z,73.68
2019-04-06T01:46:09.402Z,73.79
2019-04-06T01:46:45.628Z,73.98
2019-04-06T01:47:21.844Z,74.07
2019-04-06T01:47:58.008Z,74.17
2019-04-06T01:48:34.673Z,74.36
2019-04-06T01:49:10.927Z,74.47
2019-04-06T01:49:47.206Z,74.55
2019-04-06T01:50:23.498Z,74.63
2019-04-06T01:50:59.627Z,74.71
2019-04-06T01:51:35.831Z,75.06
2019-04-06T01:52:12.563Z,75.14
2019-04-06T01:52:49.299Z,75.14
2019-04-06T01:53:25.478Z,74.98
2019-04-06T01:54:01.605Z,74.78
2019-04-06T01:54:37.845Z,74.63
2019-04-06T01:55:14.195Z,74.58
2019-04-06T01:55:50.349Z,74.45
2019-04-06T01:56:26.525Z,74.41
2019-04-06T01:57:03.311Z,74.47
2019-04-06T01:57:39.404Z,74.50
2019-04-06T01:58:15.589Z,74.50
2019-04-06T01:58:51.738Z,74.50
2019-04-06T01:59:27.942Z,74.58
2019-04-06T02:00:04.219Z,74.60
2019-04-06T02:00:42.967Z,74.61
2019-04-06T02:01:24.362Z,74.63
2019-04-06T02:02:25.213Z,74.63
2019-04-06T02:03:01.313Z,74.53
2019-04-06T02:03:37.481Z,73.98
2019-04-06T02:04:13.865Z,73.70
2019-04-06T02:04:50.099Z,73.62
2019-04-06T02:05:27.200Z,73.38
2019-04-06T02:06:04.089Z,73.17
2019-04-06T02:06:40.427Z,72.96
2019-04-06T02:07:16.715Z,72.75
2019-04-06T02:07:53.138Z,72.72
2019-04-06T02:08:29.258Z,72.60
2019-04-06T02:09:06.265Z,73.01
2019-04-06T02:09:42.689Z,73.02
2019-04-06T02:10:19.086Z,73.05
2019-04-06T02:10:55.410Z,72.78
2019-04-06T02:11:31.568Z,72.61
2019-04-06T02:12:07.878Z,72.56
2019-04-06T02:12:44.100Z,72.34
2019-04-06T02:13:20.145Z,72.28
2019-04-06T02:13:56.150Z,72.24
2019-04-06T02:14:32.139Z,72.14
2019-04-06T02:15:08.900Z,72.04
2019-04-06T02:15:45.129Z,71.93
2019-04-06T02:16:21.412Z,71.63
2019-04-06T02:16:57.780Z,71.50
2019-04-06T02:17:33.957Z,71.27
2019-04-06T02:18:10.494Z,71.18
2019-04-06T02:18:46.776Z,71.00
2019-04-06T02:19:23.125Z,71.00
2019-04-06T02:19:59.258Z,71.06
2019-04-06T02:20:35.433Z,71.11
2019-04-06T02:21:11.627Z,71.25
2019-04-06T02:21:48.011Z,71.40
2019-04-06T02:22:24.025Z,71.52
2019-04-06T02:23:00.498Z,71.59
2019-04-06T02:23:36.648Z,71.60
2019-04-06T02:24:12.931Z,71.95
2019-04-06T02:24:49.218Z,71.91
2019-04-06T02:25:25.367Z,71.84
2019-04-06T02:26:01.630Z,71.75
2019-04-06T02:26:37.815Z,71.45
2019-04-06T02:27:14.278Z,71.49
2019-04-06T02:27:50.671Z,71.36
2019-04-06T02:28:26.810Z,71.17
2019-04-06T02:29:02.903Z,71.07
2019-04-06T02:29:39.335Z,70.83
2019-04-06T02:30:28.270Z,70.53
2019-04-06T02:31:25.865Z,70.32
2019-04-06T02:32:26.794Z,69.26
2019-04-06T02:33:19.924Z,67.94
2019-04-06T02:34:13.164Z,67.33
2019-04-06T02:35:11.115Z,66.67
2019-04-06T02:36:16.029Z,66.32
2019-04-06T02:37:09.661Z,65.72
2019-04-06T02:38:07.473Z,65.14
2019-04-06T02:39:06.678Z,64.87
2019-04-06T02:40:01.789Z,64.32
2019-04-06T02:40:48.031Z,63.85
2019-04-06T02:41:41.125Z,62.46
2019-04-06T02:42:20.711Z,61.89
2019-04-06T02:43:04.163Z,61.42
2019-04-06T02:43:40.541Z,61.08
2019-04-06T02:44:16.883Z,60.73
2019-04-06T02:44:53.528Z,60.53
2019-04-06T02:45:29.811Z,60.42
2019-04-06T02:46:05.992Z,60.30
2019-04-06T02:46:42.249Z,60.14
2019-04-06T02:47:18.575Z,60.18
2019-04-06T02:47:54.707Z,60.02
2019-04-06T02:48:31.600Z,59.45
2019-04-06T02:49:08.054Z,58.69
2019-04-06T02:49:44.285Z,58.59
2019-04-06T02:50:20.593Z,58.44
2019-04-06T02:50:56.841Z,58.14
2019-04-06T02:51:33.021Z,57.93
2019-04-06T02:52:09.359Z,57.52
2019-04-06T02:52:45.636Z,57.25
2019-04-06T02:53:21.843Z,57.20
2019-04-06T02:53:58.072Z,57.22
2019-04-06T02:54:34.408Z,56.83
2019-04-06T02:55:10.709Z,56.61
2019-04-06T02:55:46.965Z,56.33
2019-04-06T02:56:23.329Z,55.98
2019-04-06T02:56:59.718Z,55.57
2019-04-06T02:57:35.978Z,55.37
2019-04-06T02:58:12.454Z,55.69
2019-04-06T02:58:48.768Z,55.63
2019-04-06T02:59:25.085Z,55.74
2019-04-06T03:00:01.327Z,56.01
2019-04-06T03:00:37.784Z,56.27
2019-04-06T03:01:14.061Z,56.75
2019-04-06T03:01:50.311Z,57.07
2019-04-06T03:02:27.020Z,57.23
2019-04-06T03:03:03.306Z,57.35
2019-04-06T03:03:39.846Z,57.57
2019-04-06T03:04:16.167Z,57.58
2019-04-06T03:04:52.911Z,56.85
2019-04-06T03:05:29.614Z,56.91
2019-04-06T03:06:06.198Z,57.03
2019-04-06T03:06:42.376Z,57.40
2019-04-06T03:07:18.583Z,57.61
2019-04-06T03:07:55.007Z,57.70
2019-04-06T03:08:31.254Z,57.83
2019-04-06T03:09:11.270Z,57.87
2019-04-06T03:09:46.296Z,57.21
2019-04-06T03:10:22.760Z,56.50
2019-04-06T03:10:59.120Z,56.34
2019-04-06T03:11:35.444Z,55.50
2019-04-06T03:12:11.782Z,54.85
2019-04-06T03:12:48.089Z,54.79
2019-04-06T03:13:24.577Z,54.64
2019-04-06T03:14:00.817Z,54.67
2019-04-06T03:14:37.407Z,54.88
2019-04-06T03:15:14.035Z,54.92
2019-04-06T03:15:50.413Z,54.92
2019-04-06T03:16:26.839Z,54.69
2019-04-06T03:17:03.209Z,55.26
2019-04-06T03:17:39.558Z,55.44
2019-04-06T03:18:15.736Z,55.47
2019-04-06T03:18:52.168Z,55.40
2019-04-06T03:19:28.384Z,55.70
2019-04-06T03:20:04.557Z,56.03
2019-04-06T03:20:40.593Z,56.10
2019-04-06T03:21:16.815Z,56.08
2019-04-06T03:21:52.899Z,55.82
2019-04-06T03:22:29.222Z,56.06
2019-04-06T03:23:05.386Z,56.14
2019-04-06T03:23:50.588Z,56.01
2019-04-06T03:24:19.899Z,55.91
2019-04-06T03:24:56.078Z,55.82
2019-04-06T03:25:32.229Z,55.76
2019-04-06T03:26:08.316Z,55.73
2019-04-06T03:26:59.793Z,55.50
2019-04-06T03:27:26.631Z,55.31
2019-04-06T03:28:03.743Z,54.91
2019-04-06T03:28:40.032Z,54.24
2019-04-06T03:29:16.876Z,53.34
2019-04-06T03:29:58.523Z,52.96
2019-04-06T03:30:31.543Z,52.09
2019-04-06T03:31:07.684Z,51.69
2019-04-06T03:31:44.063Z,51.81
2019-04-06T03:32:20.630Z,51.78
2019-04-06T03:32:57.181Z,52.18
2019-04-06T03:33:33.396Z,52.21
2019-04-06T03:34:09.881Z,52.21
2019-04-06T03:34:46.003Z,51.77
2019-04-06T03:35:22.311Z,51.52
2019-04-06T03:35:59.132Z,51.36
2019-04-06T03:36:35.358Z,50.98
2019-04-06T03:37:11.474Z,50.62
2019-04-06T03:37:47.766Z,51.06
2019-04-06T03:38:24.011Z,51.34
2019-04-06T03:39:00.364Z,51.27
2019-04-06T03:39:36.435Z,51.00
2019-04-06T03:40:12.649Z,50.74
2019-04-06T03:40:48.914Z,50.69
2019-04-06T03:41:25.120Z,50.69
2019-04-06T03:42:01.243Z,50.58
2019-04-06T03:42:37.856Z,50.56
2019-04-06T03:43:14.089Z,50.44
2019-04-06T03:43:50.213Z,49.99
2019-04-06T03:44:26.542Z,49.50
2019-04-06T03:45:02.897Z,49.56
2019-04-06T03:45:38.933Z,49.83
2019-04-06T03:46:15.382Z,49.89
2019-04-06T03:46:51.704Z,49.75
2019-04-06T03:47:27.994Z,50.06
2019-04-06T03:48:04.309Z,50.30
2019-04-06T03:48:40.863Z,50.52
2019-04-06T03:49:17.150Z,51.03
2019-04-06T03:49:53.298Z,50.67
2019-04-06T03:50:29.903Z,50.50
2019-04-06T03:51:06.218Z,50.55
2019-04-06T03:51:42.507Z,50.48
2019-04-06T03:52:18.628Z,49.72
2019-04-06T03:52:54.845Z,49.66
2019-04-06T03:53:31.053Z,49.71
2019-04-06T03:54:07.653Z,49.82
2019-04-06T03:54:44.048Z,49.76
2019-04-06T03:55:20.124Z,49.65
2019-04-06T03:55:56.273Z,49.43
2019-04-06T03:56:32.437Z,49.50
2019-04-06T03:57:16.291Z,49.56
2019-04-06T03:57:46.809Z,49.68
2019-04-06T03:58:23.010Z,49.85
2019-04-06T03:58:59.154Z,49.88
2019-04-06T03:59:35.393Z,49.97
2019-04-06T04:00:13.293Z,50.12
2019-04-06T04:00:49.397Z,50.30
2019-04-06T04:01:25.556Z,49.95
2019-04-06T04:02:02.362Z,49.59
2019-04-06T04:02:38.453Z,49.42
2019-04-06T04:03:14.631Z,49.48
2019-04-06T04:03:51.231Z,49.69
2019-04-06T04:04:27.553Z,49.85
2019-04-06T04:05:03.664Z,50.07
2019-04-06T04:05:40.048Z,50.00
2019-04-06T04:06:16.560Z,49.80
2019-04-06T04:06:53.689Z,49.50
2019-04-06T04:07:30.029Z,49.04
2019-04-06T04:08:06.649Z,48.82
2019-04-06T04:08:42.671Z,48.71
2019-04-06T04:09:18.893Z,48.76
2019-04-06T04:09:55.102Z,49.06
2019-04-06T04:10:49.183Z,49.24
2019-04-06T04:11:25.463Z,49.32
2019-04-06T04:12:01.773Z,49.17
2019-04-06T04:12:38.019Z,48.56
2019-04-06T04:13:14.188Z,47.73
2019-04-06T04:13:50.334Z,47.30
2019-04-06T04:14:26.462Z,47.43
2019-04-06T04:15:02.953Z,47.41
2019-04-06T04:15:39.365Z,47.65
2019-04-06T04:16:15.429Z,47.70
2019-04-06T04:16:51.702Z,47.72
2019-04-06T04:17:28.104Z,47.51
2019-04-06T04:18:06.213Z,47.21
2019-04-06T04:18:42.439Z,46.98
2019-04-06T04:19:18.752Z,46.94
2019-04-06T04:19:55.000Z,47.35
2019-04-06T04:20:31.302Z,47.55
2019-04-06T04:21:07.500Z,47.70
2019-04-06T04:21:43.700Z,47.82
2019-04-06T04:22:20.120Z,47.84
2019-04-06T04:22:56.507Z,47.82
2019-04-06T04:23:32.819Z,48.16
2019-04-06T04:24:09.490Z,48.21
2019-04-06T04:24:45.651Z,48.29
2019-04-06T04:25:21.829Z,48.38
2019-04-06T04:25:58.056Z,48.60
2019-04-06T04:26:34.398Z,48.53
2019-04-06T04:27:10.492Z,48.70
2019-04-06T04:27:47.507Z,48.78
2019-04-06T04:28:23.933Z,48.65
2019-04-06T04:29:00.060Z,48.65
2019-04-06T04:29:36.244Z,48.69
2019-04-06T04:30:15.022Z,48.86
2019-04-06T04:30:50.705Z,48.78
2019-04-06T04:31:26.936Z,48.01
2019-04-06T04:32:04.005Z,47.87
2019-04-06T04:32:40.584Z,47.93
2019-04-06T04:33:16.838Z,48.06
2019-04-06T04:33:53.004Z,48.28
2019-04-06T04:34:29.172Z,48.54
2019-04-06T04:35:05.409Z,48.53
2019-04-06T04:35:41.611Z,48.92
2019-04-06T04:36:17.734Z,48.73
2019-04-06T04:36:53.889Z,48.65
2019-04-06T04:37:30.168Z,48.72
2019-04-06T04:38:06.313Z,48.25
2019-04-06T04:38:42.450Z,47.58
2019-04-06T04:39:18.576Z,47.41
2019-04-06T04:39:54.758Z,47.25
2019-04-06T04:40:31.069Z,47.07
2019-04-06T04:41:07.866Z,47.15
2019-04-06T04:41:44.073Z,47.15
2019-04-06T04:42:20.318Z,47.23
2019-04-06T04:42:56.455Z,47.17
2019-04-06T04:43:32.689Z,47.08
2019-04-06T04:44:08.910Z,47.06
2019-04-06T04:44:45.036Z,46.95
2019-04-06T04:45:21.309Z,46.90
2019-04-06T04:45:57.580Z,46.44
2019-04-06T04:46:33.713Z,46.62
2019-04-06T04:47:09.921Z,46.42
2019-04-06T04:47:46.080Z,46.41
2019-04-06T04:48:22.200Z,46.25
2019-04-06T04:48:58.490Z,46.22
2019-04-06T04:49:34.850Z,46.26
2019-04-06T04:50:11.462Z,46.33
2019-04-06T04:50:47.937Z,46.27
2019-04-06T04:51:24.083Z,46.41
2019-04-06T04:52:00.418Z,46.62
2019-04-06T04:52:36.615Z,46.83
2019-04-06T04:53:12.854Z,47.02
2019-04-06T04:53:49.502Z,47.17
2019-04-06T04:54:26.084Z,47.53
2019-04-06T04:55:02.226Z,47.57
2019-04-06T04:55:38.460Z,47.73
2019-04-06T04:56:14.550Z,47.92
2019-04-06T04:56:50.845Z,48.08
2019-04-06T04:57:27.113Z,48.24
2019-04-06T04:58:03.692Z,48.18
2019-04-06T04:58:39.970Z,48.19
2019-04-06T04:59:16.103Z,48.23
2019-04-06T04:59:52.244Z,48.32
2019-04-06T05:00:28.394Z,48.23
2019-04-06T05:01:04.649Z,48.24
2019-04-06T05:01:40.839Z,48.43
2019-04-06T05:02:17.069Z,48.69
2019-04-06T05:02:54.080Z,48.73
2019-04-06T05:03:30.165Z,48.52
2019-04-06T05:04:06.291Z,48.39
2019-04-06T05:04:42.267Z,48.25
2019-04-06T05:05:18.451Z,47.71
2019-04-06T05:05:54.517Z,47.64
2019-04-06T05:06:30.772Z,47.55
2019-04-06T05:07:06.911Z,47.38
2019-04-06T05:07:43.087Z,47.31
2019-04-06T05:08:19.293Z,47.39
2019-04-06T05:08:55.406Z,47.47
2019-04-06T05:09:31.552Z,47.54
2019-04-06T05:10:11.727Z,46.86
2019-04-06T05:10:47.886Z,46.67
2019-04-06T05:11:23.838Z,46.63
2019-04-06T05:12:00.110Z,46.62
2019-04-06T05:12:36.231Z,46.77
2019-04-06T05:13:12.385Z,47.23
2019-04-06T05:13:48.847Z,47.59
2019-04-06T05:15:01.828Z,47.94
2019-04-06T05:16:17.949Z,48.18
2019-04-06T05:16:54.106Z,48.32
2019-04-06T05:17:30.269Z,48.63
2019-04-06T05:18:06.368Z,48.85
2019-04-06T05:18:43.032Z,49.16
2019-04-06T05:19:19.414Z,49.44
2019-04-06T05:19:55.678Z,49.72
2019-04-06T05:20:31.868Z,49.87
2019-04-06T05:21:08.157Z,49.95
2019-04-06T05:21:44.352Z,50.19
2019-04-06T05:22:20.531Z,50.23
2019-04-06T05:22:56.657Z,50.65
2019-04-06T05:23:32.846Z,50.45
2019-04-06T05:24:09.845Z,50.56
2019-04-06T05:24:45.981Z,50.45
2019-04-06T05:25:22.300Z,50.28
2019-04-06T05:25:58.370Z,50.78
2019-04-06T05:26:37.991Z,51.07
2019-04-06T05:27:12.523Z,51.34
2019-04-06T05:27:52.536Z,51.34
2019-04-06T05:28:27.997Z,51.21
2019-04-06T05:29:04.094Z,51.04
2019-04-06T05:29:40.221Z,50.83
2019-04-06T05:30:16.595Z,50.26
2019-04-06T05:30:52.715Z,49.96
2019-04-06T05:31:28.790Z,50.14
2019-04-06T05:32:05.003Z,50.20
2019-04-06T05:32:41.600Z,49.95
2019-04-06T05:33:17.687Z,49.87
2019-04-06T05:33:54.070Z,49.93
2019-04-06T05:34:30.333Z,49.71
2019-04-06T05:35:06.675Z,49.72
2019-04-06T05:35:42.813Z,49.94
2019-04-06T05:36:19.045Z,50.22
2019-04-06T05:36:55.262Z,50.49
2019-04-06T05:37:32.070Z,49.96
2019-04-06T05:38:08.189Z,49.59
2019-04-06T05:38:44.367Z,49.30
2019-04-06T05:39:20.655Z,49.31
2019-04-06T05:39:56.673Z,49.32
2019-04-06T05:40:32.746Z,48.93
2019-04-06T05:41:35.432Z,48.81
2019-04-06T05:42:11.790Z,48.61
2019-04-06T05:42:49.342Z,46.83
2019-04-06T05:43:25.710Z,46.43
2019-04-06T05:44:02.183Z,46.27
2019-04-06T05:44:38.815Z,45.63
2019-04-06T05:45:15.215Z,45.62
2019-04-06T05:45:56.323Z,45.47
2019-04-06T05:46:32.586Z,45.45
2019-04-06T05:47:08.909Z,45.56
2019-04-06T05:47:50.711Z,45.88
2019-04-06T05:48:29.407Z,46.00
2019-04-06T05:49:27.196Z,46.27
2019-04-06T05:50:05.288Z,46.28
2019-04-06T05:50:41.497Z,45.51
2019-04-06T05:51:17.901Z,45.42
2019-04-06T05:52:11.679Z,45.08
2019-04-06T05:52:50.836Z,45.02
2019-04-06T05:53:29.722Z,45.04
2019-04-06T05:54:14.992Z,44.51
2019-04-06T05:54:54.588Z,44.28
2019-04-06T05:55:33.183Z,44.23
2019-04-06T05:56:13.272Z,44.24
2019-04-06T05:56:53.836Z,44.15
2019-04-06T05:57:32.360Z,44.19
2019-04-06T05:58:14.026Z,44.60
2019-04-06T05:58:53.347Z,44.79
2019-04-06T05:59:32.980Z,45.51
2019-04-06T06:00:10.582Z,45.37
2019-04-06T06:00:48.587Z,44.84
2019-04-06T06:01:24.785Z,44.83
2019-04-06T06:02:21.304Z,44.61
2019-04-06T06:03:03.310Z,44.19
2019-04-06T06:03:42.164Z,43.97
2019-04-06T06:04:23.078Z,43.86
2019-04-06T06:05:11.977Z,44.04
2019-04-06T06:05:56.143Z,43.94
2019-04-06T06:06:34.853Z,44.81
2019-04-06T06:07:12.882Z,45.37
2019-04-06T06:07:53.417Z,45.96
2019-04-06T06:08:31.262Z,45.95
2019-04-06T06:09:20.139Z,45.08
2019-04-06T06:10:01.878Z,45.02
2019-04-06T06:10:41.438Z,45.51
2019-04-06T06:11:17.711Z,45.45
2019-04-06T06:11:56.323Z,45.06
2019-04-06T06:12:35.099Z,44.29
2019-04-06T06:13:12.671Z,43.68
2019-04-06T06:13:52.122Z,43.60
2019-04-06T06:14:30.810Z,43.74
2019-04-06T06:15:07.353Z,43.87
2019-04-06T06:15:47.500Z,43.94
2019-04-06T06:16:24.489Z,43.81
2019-04-06T06:17:08.730Z,43.50
2019-04-06T06:17:44.984Z,43.11
2019-04-06T06:18:41.080Z,43.42
2019-04-06T06:19:54.553Z,44.03
2019-04-06T06:20:33.719Z,44.30
2019-04-06T06:21:14.366Z,44.85
2019-04-06T06:21:51.872Z,44.90
2019-04-06T06:22:28.001Z,44.93
2019-04-06T06:23:04.442Z,45.05
2019-04-06T06:23:44.720Z,45.26
2019-04-06T06:24:23.707Z,44.62
2019-04-06T06:25:02.253Z,44.50
2019-04-06T06:26:35.776Z,44.24
2019-04-06T06:27:12.871Z,44.30
2019-04-06T06:28:14.932Z,44.46
2019-04-06T06:29:10.664Z,44.52
2019-04-06T06:29:48.960Z,44.56
2019-04-06T06:30:27.661Z,44.30
2019-04-06T06:31:05.895Z,44.04
2019-04-06T06:31:43.041Z,44.05
2019-04-06T06:32:20.609Z,44.02
2019-04-06T06:32:57.745Z,43.57
2019-04-06T06:33:34.680Z,43.49
2019-04-06T06:34:10.845Z,43.50
2019-04-06T06:34:47.588Z,43.63
2019-04-06T06:35:23.895Z,43.91
2019-04-06T06:36:00.991Z,44.18
2019-04-06T06:36:38.547Z,44.17
2019-04-06T06:37:15.595Z,44.13
2019-04-06T06:38:06.568Z,44.21
2019-04-06T06:38:44.065Z,44.14
2019-04-06T06:39:20.440Z,44.08
2019-04-06T06:40:11.789Z,44.40
2019-04-06T06:40:48.542Z,44.63
2019-04-06T06:41:25.959Z,44.65
2019-04-06T06:42:03.663Z,44.69
2019-04-06T06:42:42.073Z,44.29
2019-04-06T06:43:20.989Z,43.97
2019-04-06T06:43:58.198Z,44.01
2019-04-06T06:44:35.224Z,44.18
2019-04-06T06:45:14.558Z,44.05
2019-04-06T06:46:11.604Z,43.98
2019-04-06T06:46:58.224Z,43.94
2019-04-06T06:47:40.566Z,44.19
2019-04-06T06:48:16.893Z,44.33
2019-04-06T06:48:55.140Z,44.27
2019-04-06T06:49:31.367Z,44.23
2019-04-06T06:50:08.371Z,43.92
2019-04-06T06:50:49.068Z,43.67
2019-04-06T06:51:26.289Z,43.80
2019-04-06T06:52:23.028Z,43.87
2019-04-06T06:53:04.806Z,43.95
2019-04-06T06:53:52.846Z,44.40
2019-04-06T06:54:29.349Z,44.74
2019-04-06T06:55:06.253Z,44.93
2019-04-06T06:55:56.078Z,45.20
2019-04-06T06:56:37.814Z,44.87
2019-04-06T06:57:15.417Z,44.21
2019-04-06T06:57:52.603Z,43.90
2019-04-06T06:58:29.086Z,44.38
2019-04-06T06:59:10.765Z,44.77
2019-04-06T06:59:50.630Z,45.12
2019-04-06T07:00:36.507Z,45.29
2019-04-06T07:01:17.103Z,45.30
2019-04-06T07:01:53.596Z,45.56
2019-04-06T07:02:30.733Z,46.22
2019-04-06T07:03:11.193Z,46.46
2019-04-06T07:03:48.338Z,46.65
2019-04-06T07:04:25.360Z,46.85
2019-04-06T07:05:03.163Z,47.08
2019-04-06T07:05:45.511Z,47.40
2019-04-06T07:06:21.810Z,47.71
2019-04-06T07:07:00.904Z,47.86
2019-04-06T07:07:37.389Z,48.01
2019-04-06T07:08:14.037Z,48.38
2019-04-06T07:08:50.968Z,48.62
2019-04-06T07:09:27.683Z,48.90
2019-04-06T07:10:07.274Z,48.91
2019-04-06T07:10:43.624Z,48.81
2019-04-06T07:11:19.789Z,48.72
2019-04-06T07:12:08.183Z,48.44
2019-04-06T07:12:48.061Z,48.27
2019-04-06T07:13:26.496Z,48.17
2019-04-06T07:14:05.232Z,48.13
2019-04-06T07:14:42.075Z,47.84
2019-04-06T07:15:21.245Z,47.83
2019-04-06T07:15:58.263Z,47.64
2019-04-06T07:16:35.522Z,47.07
2019-04-06T07:17:12.166Z,46.71
2019-04-06T07:17:49.234Z,46.66
2019-04-06T07:18:28.904Z,46.70
2019-04-06T07:19:06.026Z,46.77
2019-04-06T07:19:42.918Z,46.62
2019-04-06T07:20:19.835Z,46.69
2019-04-06T07:21:01.603Z,46.45
2019-04-06T07:21:39.056Z,46.28
2019-04-06T07:22:15.595Z,46.33
2019-04-06T07:22:53.781Z,46.18
2019-04-06T07:23:30.815Z,46.17
2019-04-06T07:24:09.114Z,46.47
2019-04-06T07:24:53.882Z,46.89
2019-04-06T07:25:31.789Z,47.15
2019-04-06T07:26:08.475Z,47.04
2019-04-06T07:26:44.699Z,47.06
2019-04-06T07:27:20.986Z,47.40
2019-04-06T07:27:57.938Z,47.69
2019-04-06T07:28:38.094Z,47.85
2019-04-06T07:29:15.714Z,47.40
2019-04-06T07:30:00.058Z,47.67
2019-04-06T07:30:40.620Z,48.04
2019-04-06T07:31:23.583Z,48.69
2019-04-06T07:32:00.610Z,48.89
2019-04-06T07:32:40.774Z,48.95
2019-04-06T07:33:20.283Z,49.16
2019-04-06T07:34:00.178Z,49.16
2019-04-06T07:34:37.680Z,49.28
2019-04-06T07:35:14.898Z,49.37
2019-04-06T07:35:53.224Z,49.54
2019-04-06T07:36:34.510Z,49.50
2019-04-06T07:37:12.087Z,49.63
2019-04-06T07:37:49.800Z,49.77
2019-04-06T07:38:27.309Z,49.85
2019-04-06T07:39:07.023Z,49.95
2019-04-06T07:39:45.686Z,49.90
2019-04-06T07:40:22.515Z,50.12
2019-04-06T07:40:59.243Z,50.21
2019-04-06T07:41:36.356Z,50.15
2019-04-06T07:42:14.385Z,49.95
2019-04-06T07:42:53.083Z,49.84
2019-04-06T07:43:34.238Z,50.01
2019-04-06T07:44:13.070Z,49.94
2019-04-06T07:44:51.009Z,48.98
2019-04-06T07:45:29.451Z,48.63
2019-04-06T07:46:06.204Z,48.45
2019-04-06T07:46:46.820Z,48.25
2019-04-06T07:47:25.397Z,47.89
2019-04-06T07:48:03.552Z,47.40
2019-04-06T07:48:40.305Z,47.03
2019-04-06T07:49:19.829Z,46.75
2019-04-06T07:49:57.432Z,46.46
2019-04-06T07:50:33.555Z,46.23
2019-04-06T07:51:15.004Z,45.93
2019-04-06T07:51:53.948Z,45.71
2019-04-06T07:52:30.973Z,45.41
2019-04-06T07:53:08.974Z,45.61
2019-04-06T07:53:45.750Z,45.79
2019-04-06T07:54:31.614Z,45.86
2019-04-06T07:55:11.890Z,45.74
2019-04-06T07:55:49.063Z,45.93
2019-04-06T07:56:25.222Z,46.21
2019-04-06T07:57:02.203Z,46.60
2019-04-06T07:57:41.270Z,46.98
2019-04-06T07:58:18.519Z,47.14
2019-04-06T07:58:55.213Z,47.07
2019-04-06T07:59:32.104Z,47.22
2019-04-06T08:00:08.497Z,47.30
2019-04-06T08:00:44.838Z,47.29
2019-04-06T08:01:26.117Z,47.55
2019-04-06T08:02:02.940Z,47.85
2019-04-06T08:02:42.686Z,47.92
2019-04-06T08:03:22.107Z,48.23
2019-04-06T08:03:59.134Z,48.47
2019-04-06T08:04:36.986Z,48.47
2019-04-06T08:05:13.464Z,48.69
2019-04-06T08:05:54.729Z,48.88
2019-04-06T08:06:32.384Z,49.08
2019-04-06T08:07:09.000Z,49.32
2019-04-06T08:07:48.585Z,49.57
2019-04-06T08:08:29.000Z,49.73
2019-04-06T08:09:08.871Z,50.01
2019-04-06T08:09:45.449Z,50.15